Current Weather Conditions: station 46145

sailwx.info

Wind from 230 at 29 knots gusting 42

Wave height 6.1 meters (20 feet), 14 second period

Air temperature 8.6° C
Water temperature 9.1° C

Last reported at 2016-Dec-02 18:00 UTC.
Time now 2016-Dec-02 20:05 UTC

Location: N 54°24' W 132°24'.
View on Google Maps.

See reports from other nearby stations

  
Tides and Currents Weather Stations Pressure Air Temp Water Temp Dewpoint Dewpoint Depression Visibility Wind Speed Wind Dir Waves Ship Positions
date/time (UTC)wind fromknots sea level pressurealtimeterstation pressurevisibilityair tempwater tempwave heightnotes
2016-Dec-02 18:00 230 29 gusting 42 8.6 9.1 6.1
2016-Dec-02 17:00 220 25 gusting 33 8.6 9.1 5.4
2016-Dec-02 16:00 200 23 gusting 29 8.6 9.1 4.9
2016-Dec-02 15:00 200 25 gusting 33 8.9 9.2 4.1
2016-Dec-02 14:00 200 23 gusting 31 9.0 9.3 3.6
2016-Dec-02 13:00 200 27 gusting 40 8.9 9.3 3.5
2016-Dec-02 12:00 200 25 gusting 34 9.5 9.3 3.1
2016-Dec-02 11:00 200 21 gusting 27 9.5 9.5 2.9
2016-Dec-02 10:00 190 23 gusting 31 9.6 9.1 3.5
2016-Dec-02 09:00 160 27 gusting 38 8.5 9.2 3.7
2016-Dec-02 08:00 160 36 gusting 44 8.9 9.2 3.9
2016-Dec-02 07:00 150 40 gusting 48 8.5 9.1 4.0
2016-Dec-02 06:00 150 36 gusting 50 8.2 9.1 3.5
2016-Dec-02 05:00 150 34 gusting 44 8.3 9.1 3.1
2016-Dec-02 04:00 140 31 gusting 38 8.2 9.1 2.8
2016-Dec-02 03:00 140 25 gusting 33 8.8 9.1 2.7
2016-Dec-02 02:00 140 25 gusting 31 8.6 9.1 3.0
2016-Dec-02 01:00 150 21 gusting 27 8.3 9.1 2.9
2016-Dec-02 00:00 150 19 gusting 23 8.4 9.1 2.6
2016-Dec-01 23:00 150 15 gusting 19 8.3 9.2 2.3
2016-Dec-01 22:00 150 15 gusting 19 8.3 9.3 2.4
2016-Dec-01 21:00 190 13 gusting 17 8.8 9.3 2.6
2016-Dec-01 20:00 210 15 gusting 17 8.6 9.3 2.5
2016-Dec-01 19:00 210 15 gusting 23 8.1 9.3 2.6
2016-Dec-01 18:00 210 17 gusting 23 7.8 9.3 2.8
2016-Dec-01 17:00 170 15 gusting 19 8.1 9.3 2.8
2016-Dec-01 16:00 160 15 gusting 19 7.8 9.3 2.7
2016-Dec-01 15:00 160 15 gusting 19 7.8 9.4 2.9
2016-Dec-01 14:00 170 19 gusting 25 7.4 9.4 2.8
2016-Dec-01 13:00 160 21 gusting 27 7.7 9.3 2.7
2016-Dec-01 12:00 150 27 gusting 33 7.7 9.4 2.7
2016-Dec-01 11:00 150 27 8.1 9.4 2.6
2016-Dec-01 10:00 150 27 gusting 31 8.2 9.3 2.6
2016-Dec-01 08:00 140 27 gusting 33 7.4 9.6 2.3
2016-Dec-01 07:00 140 25 gusting 31 7.2 9.6 2.5
2016-Dec-01 06:00 140 23 gusting 27 7.1 9.5 2.4
2016-Dec-01 05:00 150 17 gusting 23 6.7 9.5 3.1
2016-Dec-01 04:00 150 19 gusting 23 7.4 9.5 3.1
2016-Dec-01 03:00 150 15 gusting 21 7.3 9.6 3.3
2016-Dec-01 02:00 160 11 gusting 13 7.6 9.5 3.3
2016-Dec-01 01:00 180 11 gusting 13 7.5 9.3 3.0
2016-Dec-01 00:00 190 7 gusting 11 7.7 9.3 3.4
2016-Nov-30 23:00 200 7 gusting 11 7.7 9.4 3.5
2016-Nov-30 22:00 260 7 gusting 11 8.0 9.5 4.2
2016-Nov-30 21:00 260 9 gusting 15 8.1 9.5 4.1
2016-Nov-30 20:00 280 7 gusting 15 7.9 9.4 4.1